Time;durP1;ratioP1;P1;durP2;ratioP2;P2;SDS_P1;SDS_P2;PMS_P1;PMS_P2;Temp;Humidity;BMP_temperature;BMP_pressure;BME280_temperature;BME280_humidity;BME280_pressure;Samples;Min_cycle;Max_cycle;Signal;HPM_P1;HPM_P2
2022/09/12 00:00:08;;;;;;;;;;;;;;;16.18;64.18;95585.53;5114044;28;20044;-73
2022/09/12 00:02:33;;;;;;;;;;;;;;;16.18;64.43;95589.00;5096320;28;20226;-73
2022/09/12 00:04:59;;;;;;;;;;;;;;;16.18;64.18;95583.63;5096266;28;20095;-73
2022/09/12 00:07:24;;;;;;;;;;;;;;;16.13;63.92;95580.34;5114342;28;20019;-73
2022/09/12 00:09:49;;;;;;;;;;;;;;;16.10;63.77;95581.78;5114295;28;20015;-73
2022/09/12 00:12:14;;;;;;;;;;;;;;;16.14;63.66;95581.94;5114005;28;20856;-73
2022/09/12 00:14:40;;;;;;;;;;;;;;;16.13;63.45;95575.78;5096477;28;20020;-73
2022/09/12 00:17:05;;;;;;;;;;;;;;;16.10;63.54;95571.84;5096117;28;20008;-74
2022/09/12 00:19:30;;;;;;;;;;;;;;;16.09;63.58;95577.53;5114151;28;20005;-73
2022/09/12 00:21:55;;;;;;;;;;;;;;;16.07;63.28;95572.50;5096037;28;20091;-73
2022/09/12 00:24:20;;;;;;;;;;;;;;;16.02;63.60;95567.34;5114309;28;20073;-73
2022/09/12 00:26:46;;;;;;;;;;;;;;;15.98;63.56;95562.94;5114020;28;20093;-73
2022/09/12 00:29:15;;;;;;;;;;;;;;;16.07;63.29;95567.13;5113767;28;20015;-73
2022/09/12 00:31:40;;;;;;;;;;;;;;;15.93;63.52;95563.16;5095808;28;20117;-73
2022/09/12 00:34:06;;;;;;;;;;;;;;;15.91;63.80;95566.13;5113871;28;20099;-73
2022/09/12 00:36:31;;;;;;;;;;;;;;;15.89;63.76;95570.28;5095452;28;20012;-73
2022/09/12 00:38:57;;;;;;;;;;;;;;;15.89;63.97;95565.69;5095192;28;20088;-74
2022/09/12 00:41:27;;;;;;;;;;;;;;;15.90;63.90;95564.56;5095628;28;20009;-73
2022/09/12 00:44:15;;;;;;;;;;;;;;;15.88;64.01;95564.13;5095602;28;20016;-73
2022/09/12 00:46:45;;;;;;;;;;;;;;;15.89;63.67;95554.97;5048800;28;20016;-73
2022/09/12 00:49:16;;;;;;;;;;;;;;;15.86;63.79;95552.91;5113348;28;20043;-73
2022/09/12 00:51:44;;;;;;;;;;;;;;;15.91;63.84;95550.03;5095285;28;20020;-73
2022/09/12 00:54:13;;;;;;;;;;;;;;;15.92;63.61;95548.94;5095302;28;20368;-73
2022/09/12 00:56:40;;;;;;;;;;;;;;;15.90;63.74;95545.00;5113651;28;20008;-73
2022/09/12 00:59:13;;;;;;;;;;;;;;;15.82;63.66;95549.34;5113041;28;20005;-74
2022/09/12 01:01:40;;;;;;;;;;;;;;;15.81;63.53;95545.06;5113315;28;20046;-73
2022/09/12 01:04:07;;;;;;;;;;;;;;;15.79;63.71;95544.63;5094818;28;20402;-73
2022/09/12 01:06:35;;;;;;;;;;;;;;;15.79;63.94;95544.63;5113419;28;20048;-73
2022/09/12 01:09:03;;;;;;;;;;;;;;;15.78;63.90;95538.47;5112177;28;20005;-73
2022/09/12 01:11:29;;;;;;;;;;;;;;;15.77;64.08;95544.94;5094893;28;20341;-73
2022/09/12 01:13:54;;;;;;;;;;;;;;;15.72;63.89;95541.69;5094960;28;20019;-73
2022/09/12 01:16:19;;;;;;;;;;;;;;;15.65;63.85;95534.13;5113192;28;20001;-73
2022/09/12 01:18:50;;;;;;;;;;;;;;;15.64;63.46;95537.16;5094466;28;20504;-73
2022/09/12 01:21:29;;;;;;;;;;;;;;;15.66;63.87;95533.06;5094750;28;20103;-73
2022/09/12 01:23:57;;;;;;;;;;;;;;;15.69;63.89;95531.59;5094850;28;20060;-73
2022/09/12 01:26:22;;;;;;;;;;;;;;;15.70;63.51;95520.53;5112972;28;20487;-73
2022/09/12 01:29:06;;;;;;;;;;;;;;;15.57;63.87;95522.34;5094494;28;20008;-73
2022/09/12 01:31:50;;;;;;;;;;;;;;;15.53;64.21;95520.63;5112931;28;20005;-73
2022/09/12 01:34:18;;;;;;;;;;;;;;;15.45;63.94;95526.81;5112823;28;20051;-73
2022/09/12 01:37:06;;;;;;;;;;;;;;;15.40;63.94;95519.75;5112994;28;20016;-73
2022/09/12 01:39:38;;;;;;;;;;;;;;;15.41;64.15;95523.25;5111768;28;20008;-73
2022/09/12 01:42:09;;;;;;;;;;;;;;;15.35;64.24;95517.25;5094297;28;20009;-73
2022/09/12 01:44:53;;;;;;;;;;;;;;;15.32;64.20;95520.59;5112831;28;20478;-73
2022/09/12 01:47:28;;;;;;;;;;;;;;;15.30;64.09;95525.50;5094163;28;20055;-73
2022/09/12 01:50:09;;;;;;;;;;;;;;;15.29;63.83;95522.03;5112215;28;20012;-73
2022/09/12 01:52:40;;;;;;;;;;;;;;;15.25;64.26;95514.97;5094317;28;20012;-73
2022/09/12 01:55:08;;;;;;;;;;;;;;;15.22;64.16;95515.63;5112669;28;20004;-73
2022/09/12 01:57:45;;;;;;;;;;;;;;;15.21;63.85;95514.06;5112510;28;20004;-72
2022/09/12 02:00:11;;;;;;;;;;;;;;;15.23;64.05;95504.56;5111878;28;20012;-73
2022/09/12 02:02:39;;;;;;;;;;;;;;;15.24;63.79;95498.09;5112302;28;20156;-73
2022/09/12 02:05:07;;;;;;;;;;;;;;;15.24;63.93;95502.66;5094166;28;20092;-73
2022/09/12 02:07:34;;;;;;;;;;;;;;;15.23;64.05;95501.09;5112266;28;20102;-72
2022/09/12 02:10:05;;;;;;;;;;;;;;;15.21;63.80;95498.75;5111920;28;20667;-73
2022/09/12 02:12:34;;;;;;;;;;;;;;;15.21;64.16;95492.63;5093928;28;20103;-73
2022/09/12 02:15:02;;;;;;;;;;;;;;;15.20;63.72;95488.34;5093574;28;20015;-74
2022/09/12 02:17:29;;;;;;;;;;;;;;;15.17;64.14;95486.34;5112170;28;20076;-74
2022/09/12 02:19:58;;;;;;;;;;;;;;;15.16;63.67;95480.19;5092081;28;20009;-73
2022/09/12 02:22:25;;;;;;;;;;;;;;;15.14;63.62;95482.41;5093182;28;20039;-73
2022/09/12 02:24:52;;;;;;;;;;;;;;;15.13;63.64;95480.81;5093869;28;20009;-73
2022/09/12 02:27:36;;;;;;;;;;;;;;;15.12;64.01;95478.47;5093614;28;20020;-73
2022/09/12 02:30:04;;;;;;;;;;;;;;;15.08;63.81;95471.09;5092956;28;20460;-73
2022/09/12 02:32:49;;;;;;;;;;;;;;;15.18;63.72;95479.84;5093649;28;20020;-73
2022/09/12 02:35:24;;;;;;;;;;;;;;;15.15;63.88;95480.50;5075567;28;20017;-72
2022/09/12 02:37:58;;;;;;;;;;;;;;;15.14;64.13;95476.25;5111752;28;20008;-73
2022/09/12 02:40:24;;;;;;;;;;;;;;;15.13;63.76;95472.78;5093028;28;20060;-73
2022/09/12 02:42:50;;;;;;;;;;;;;;;15.12;63.66;95473.13;5111646;28;20099;-73
2022/09/12 02:45:16;;;;;;;;;;;;;;;15.08;63.35;95471.09;5111520;28;20674;-73
2022/09/12 02:47:54;;;;;;;;;;;;;;;15.06;63.40;95473.31;5111620;28;20087;-73
2022/09/12 02:50:20;;;;;;;;;;;;;;;15.03;63.95;95473.94;5092675;28;20488;-73
2022/09/12 02:52:45;;;;;;;;;;;;;;;14.98;63.87;95476.81;5111375;28;20009;-74
2022/09/12 02:55:11;;;;;;;;;;;;;;;14.96;63.85;95475.56;5111641;28;20011;-73
2022/09/12 02:57:36;;;;;;;;;;;;;;;14.92;63.92;95470.06;5093135;28;20034;-73
2022/09/12 03:00:03;;;;;;;;;;;;;;;14.96;63.97;95467.53;5092416;28;20024;-73
2022/09/12 03:02:46;;;;;;;;;;;;;;;14.96;64.11;95470.22;5092591;28;20444;-73
2022/09/12 03:05:21;;;;;;;;;;;;;;;14.96;64.00;95462.19;5111336;28;20012;-73
2022/09/12 03:07:57;;;;;;;;;;;;;;;14.93;63.67;95462.81;5092962;28;20008;-72
2022/09/12 03:10:41;;;;;;;;;;;;;;;14.90;63.82;95466.16;5092386;28;20009;-73
2022/09/12 03:13:09;;;;;;;;;;;;;;;14.87;63.96;95466.78;5092924;28;20031;-73
2022/09/12 03:15:53;;;;;;;;;;;;;;;14.85;63.46;95455.63;5092794;28;20034;-72
2022/09/12 03:18:24;;;;;;;;;;;;;;;14.81;63.97;95458.16;5110622;28;20091;-72
2022/09/12 03:20:56;;;;;;;;;;;;;;;14.81;63.65;95458.16;5092813;28;20060;-73
2022/09/12 03:23:37;;;;;;;;;;;;;;;14.79;63.97;95453.13;5092910;28;20008;-73
2022/09/12 03:26:09;;;;;;;;;;;;;;;14.80;63.58;95453.91;5092479;28;20016;-72
2022/09/12 03:28:36;;;;;;;;;;;;;;;14.79;63.86;95458.50;5110278;28;20008;-73
2022/09/12 03:31:10;;;;;;;;;;;;;;;14.80;63.86;95452.03;5110132;28;20024;-73
2022/09/12 03:33:35;;;;;;;;;;;;;;;14.77;63.52;95462.59;5092358;28;20448;-73
2022/09/12 03:36:00;;;;;;;;;;;;;;;14.76;63.53;95455.66;5092499;28;20015;-73
2022/09/12 03:38:26;;;;;;;;;;;;;;;14.74;63.37;95461.34;5109993;28;20043;-72
2022/09/12 03:40:51;;;;;;;;;;;;;;;14.73;63.54;95461.66;5110710;28;20057;-73
2022/09/12 03:43:16;;;;;;;;;;;;;;;14.73;63.77;95454.41;5110515;28;20005;-73
2022/09/12 03:45:41;;;;;;;;;;;;;;;14.74;63.42;95460.53;5092573;28;20456;-73
2022/09/12 03:48:06;;;;;;;;;;;;;;;14.72;63.45;95454.72;5092245;28;20008;-73
2022/09/12 03:50:32;;;;;;;;;;;;;;;14.70;63.23;95462.31;5091632;28;20017;-73
2022/09/12 03:52:58;;;;;;;;;;;;;;;14.68;63.55;95459.16;5092198;28;20387;-73
2022/09/12 03:55:25;;;;;;;;;;;;;;;14.67;63.70;95455.69;5110574;28;20089;-73
2022/09/12 03:57:52;;;;;;;;;;;;;;;14.66;63.30;95459.47;5110697;28;20617;-73
2022/09/12 04:00:17;;;;;;;;;;;;;;;14.64;63.13;95453.69;5110034;28;20491;-75
2022/09/12 04:02:42;;;;;;;;;;;;;;;14.61;63.08;95448.16;5110964;28;20009;-73
2022/09/12 04:05:07;;;;;;;;;;;;;;;14.57;63.26;95454.16;5110271;28;20008;-71
2022/09/12 04:07:33;;;;;;;;;;;;;;;14.52;63.72;95457.00;5092392;28;20015;-71
2022/09/12 04:09:58;;;;;;;;;;;;;;;14.53;63.39;95457.78;5109792;28;20456;-72
2022/09/12 04:12:23;;;;;;;;;;;;;;;14.52;63.54;95462.34;5110456;28;20015;-74
2022/09/12 04:14:48;;;;;;;;;;;;;;;14.51;63.70;95457.34;5092191;28;20009;-74
2022/09/12 04:17:13;;;;;;;;;;;;;;;14.50;63.48;95459.22;5110288;28;20473;-72
2022/09/12 04:19:39;;;;;;;;;;;;;;;14.50;63.46;95469.16;5109697;28;20402;-71
2022/09/12 04:22:04;;;;;;;;;;;;;;;14.46;63.63;95458.25;5109976;28;20035;-72
2022/09/12 04:24:30;;;;;;;;;;;;;;;14.46;63.66;95468.97;5092087;28;20035;-73
2022/09/12 04:26:55;;;;;;;;;;;;;;;14.40;63.97;95466.78;5110099;28;20439;-71
2022/09/12 04:29:21;;;;;;;;;;;;;;;14.38;63.39;95466.31;5109705;28;20345;-73
2022/09/12 04:31:46;;;;;;;;;;;;;;;14.34;63.82;95470.75;5109678;28;20122;-71
2022/09/12 04:34:11;;;;;;;;;;;;;;;14.33;63.80;95464.63;5109759;28;20012;-72
2022/09/12 04:36:37;;;;;;;;;;;;;;;14.34;64.13;95465.41;5109902;28;20054;-72
2022/09/12 04:39:03;;;;;;;;;;;;;;;14.34;64.04;95460.84;5109701;28;20008;-77
2022/09/12 04:41:29;;;;;;;;;;;;;;;14.43;63.63;95458.91;5111823;28;20095;-73
2022/09/12 04:44:03;;;;;;;;;;;;;;;14.55;63.19;95461.72;5113880;28;20020;-76
2022/09/12 04:46:29;;;;;;;;;;;;;;;14.57;63.16;95454.16;5113922;28;20464;-69
2022/09/12 04:48:54;;;;;;;;;;;;;;;14.57;62.86;95462.19;5095286;28;20784;-71
2022/09/12 04:51:30;;;;;;;;;;;;;;;14.57;62.77;95453.38;5113700;28;20000;-71
2022/09/12 04:53:56;;;;;;;;;;;;;;;14.60;63.06;95455.41;5113626;28;20015;-71
2022/09/12 04:56:22;;;;;;;;;;;;;;;14.62;62.99;95455.09;5113685;28;20102;-75
2022/09/12 04:58:47;;;;;;;;;;;;;;;14.59;62.88;95458.41;5113063;28;20367;-73
2022/09/12 05:01:17;;;;;;;;;;;;;;;14.59;62.88;95455.72;5095042;28;20017;-74
2022/09/12 05:03:44;;;;;;;;;;;;;;;14.61;63.22;95462.34;5095402;28;20062;-74
2022/09/12 05:06:11;;;;;;;;;;;;;;;14.65;63.26;95459.81;5113479;28;20015;-73
2022/09/12 05:08:36;;;;;;;;;;;;;;;14.67;63.16;95462.94;5094907;28;20803;-72
2022/09/12 05:11:05;;;;;;;;;;;;;;;14.59;63.15;95467.25;5094909;28;20012;-70
2022/09/12 05:13:31;;;;;;;;;;;;;;;14.59;63.09;95461.88;5095326;28;20449;-72
2022/09/12 05:15:58;;;;;;;;;;;;;;;14.63;63.57;95462.00;5094625;28;20051;-73
2022/09/12 05:18:23;;;;;;;;;;;;;;;14.66;63.71;95472.88;5112577;28;20068;-72
2022/09/12 05:20:49;;;;;;;;;;;;;;;14.71;63.68;95472.69;5112934;28;20004;-72
2022/09/12 05:23:14;;;;;;;;;;;;;;;14.79;63.50;95465.72;5094722;28;20019;-73
2022/09/12 05:25:46;;;;;;;;;;;;;;;14.87;63.17;95472.16;5112634;28;20008;-73
2022/09/12 05:28:11;;;;;;;;;;;;;;;14.92;63.05;95471.97;5094451;28;20008;-71
2022/09/12 05:30:36;;;;;;;;;;;;;;;14.95;63.38;95472.13;5112619;28;20009;-70
2022/09/12 05:33:02;;;;;;;;;;;;;;;15.00;63.01;95479.97;5112601;28;20009;-70
2022/09/12 05:35:27;;;;;;;;;;;;;;;15.05;62.98;95482.47;5112599;28;20098;-71
2022/09/12 05:37:52;;;;;;;;;;;;;;;15.14;62.77;95481.63;5094332;28;20013;-70
2022/09/12 05:40:18;;;;;;;;;;;;;;;15.22;62.87;95486.16;5112314;28;20095;-71
2022/09/12 05:42:43;;;;;;;;;;;;;;;15.27;63.05;95481.38;5094492;28;20012;-70
2022/09/12 05:45:08;;;;;;;;;;;;;;;15.35;62.44;95487.78;5112658;28;20085;-70
2022/09/12 05:47:33;;;;;;;;;;;;;;;15.44;62.82;95474.34;5112006;28;20063;-70
2022/09/12 05:49:59;;;;;;;;;;;;;;;15.55;62.59;95470.94;5093672;28;20008;-70
2022/09/12 05:52:24;;;;;;;;;;;;;;;15.63;62.87;95469.34;5094480;28;20070;-74
2022/09/12 05:54:49;;;;;;;;;;;;;;;15.72;63.29;95472.75;5112213;28;20004;-75
2022/09/12 05:57:14;;;;;;;;;;;;;;;15.85;63.11;95473.56;5094506;28;20055;-74
2022/09/12 05:59:39;;;;;;;;;;;;;;;15.93;63.06;95480.75;5110497;28;20017;-70
2022/09/12 06:02:05;;;;;;;;;;;;;;;16.07;62.32;95480.47;5118323;28;19999;-70
2022/09/12 06:04:30;;;;;;;;;;;;;;;16.21;62.20;95485.53;5125667;28;20015;-73
2022/09/12 06:06:55;;;;;;;;;;;;;;;16.29;62.10;95482.00;5118882;28;20019;-69
2022/09/12 06:09:21;;;;;;;;;;;;;;;16.41;61.68;95478.56;5094043;28;20012;-71
2022/09/12 06:11:46;;;;;;;;;;;;;;;16.51;61.63;95483.50;5112764;28;20008;-71
2022/09/12 06:14:13;;;;;;;;;;;;;;;16.60;61.46;95479.59;5110948;28;20023;-69
2022/09/12 06:16:38;;;;;;;;;;;;;;;16.72;61.13;95472.69;5112430;28;20518;-78
2022/09/12 06:19:11;;;;;;;;;;;;;;;16.83;61.09;95473.81;5112522;28;20005;-70
2022/09/12 06:21:38;;;;;;;;;;;;;;;16.92;60.78;95479.88;5094594;28;20008;-70
2022/09/12 06:24:03;;;;;;;;;;;;;;;17.02;60.90;95475.97;5112559;28;20044;-71
2022/09/12 06:26:29;;;;;;;;;;;;;;;17.13;60.68;95482.44;5112161;28;20064;-69
2022/09/12 06:28:55;;;;;;;;;;;;;;;17.23;60.71;95492.75;5111532;28;20004;-69
2022/09/12 06:31:24;;;;;;;;;;;;;;;17.34;60.46;95491.16;5093437;28;20012;-69
2022/09/12 06:33:50;;;;;;;;;;;;;;;17.44;59.85;95475.69;5112158;28;20004;-69
2022/09/12 06:36:17;;;;;;;;;;;;;;;17.49;59.50;95470.09;5111675;28;20077;-69
2022/09/12 06:38:43;;;;;;;;;;;;;;;17.61;59.51;95470.06;5111507;28;20107;-70
2022/09/12 06:41:10;;;;;;;;;;;;;;;17.71;59.31;95469.59;5111771;28;20088;-70
2022/09/12 06:43:35;;;;;;;;;;;;;;;17.78;59.26;95469.81;5093615;28;20020;-70
2022/09/12 06:46:01;;;;;;;;;;;;;;;17.87;58.99;95475.84;5109914;28;20020;-71
2022/09/12 06:48:26;;;;;;;;;;;;;;;17.93;58.48;95471.78;5093097;28;20057;-70
2022/09/12 06:50:59;;;;;;;;;;;;;;;17.96;58.37;95472.22;5112179;28;20047;-72
2022/09/12 06:53:25;;;;;;;;;;;;;;;18.04;58.49;95474.75;5112025;28;20012;-71
2022/09/12 06:55:54;;;;;;;;;;;;;;;18.16;58.30;95479.28;5111866;28;20004;-72
2022/09/12 06:58:19;;;;;;;;;;;;;;;18.23;58.04;95478.72;5092595;28;20037;-71
2022/09/12 07:00:44;;;;;;;;;;;;;;;18.29;57.75;95478.13;5109736;28;20523;-70
2022/09/12 07:03:09;;;;;;;;;;;;;;;18.37;57.80;95484.47;5093157;28;20008;-70
2022/09/12 07:05:36;;;;;;;;;;;;;;;18.48;57.44;95484.75;5126424;27;20024;-71
2022/09/12 07:08:01;;;;;;;;;;;;;;;18.57;57.38;95488.06;5111142;28;20417;-69
2022/09/12 07:10:26;;;;;;;;;;;;;;;18.61;57.26;95478.16;5110457;28;20008;-69
2022/09/12 07:12:51;;;;;;;;;;;;;;;18.69;56.78;95483.41;5110617;28;20096;-73
2022/09/12 07:15:17;;;;;;;;;;;;;;;18.78;56.53;95477.06;5110991;28;20004;-73
2022/09/12 07:17:44;;;;;;;;;;;;;;;18.88;56.67;95485.41;5123437;27;20077;-73
2022/09/12 07:20:09;;;;;;;;;;;;;;;18.97;56.21;95479.84;5109230;28;20380;-72
2022/09/12 07:22:34;;;;;;;;;;;;;;;19.06;55.98;95480.44;5110699;28;20020;-74
2022/09/12 07:24:59;;;;;;;;;;;;;;;19.12;56.06;95484.44;5090031;28;20004;-75
2022/09/12 07:27:25;;;;;;;;;;;;;;;19.25;56.42;95487.81;5109023;27;20016;-76
2022/09/12 07:29:50;;;;;;;;;;;;;;;19.07;55.66;95484.72;5108635;27;20008;-75
2022/09/12 07:32:15;;;;;;;;;;;;;;;19.35;55.49;95486.50;5109087;28;20013;-74
2022/09/12 07:34:40;;;;;;;;;;;;;;;19.37;55.29;95481.53;5106319;28;20469;-74
2022/09/12 07:37:06;;;;;;;;;;;;;;;19.23;55.82;95480.06;5109966;27;20491;-73
2022/09/12 07:39:31;;;;;;;;;;;;;;;19.37;54.74;95481.53;5090462;28;20005;-74
2022/09/12 07:41:57;;;;;;;;;;;;;;;19.10;56.00;95489.41;5110651;28;20009;-74
2022/09/12 07:44:24;;;;;;;;;;;;;;;19.15;55.46;95488.38;5110613;28;20008;-74
2022/09/12 07:46:49;;;;;;;;;;;;;;;19.60;54.86;95495.94;5109318;28;20177;-72
2022/09/12 07:49:14;;;;;;;;;;;;;;;19.90;54.66;95493.47;5124488;28;20097;-74
2022/09/12 07:51:40;;;;;;;;;;;;;;;19.92;53.09;95490.44;5110331;28;20063;-73
2022/09/12 07:54:08;;;;;;;;;;;;;;;20.18;53.22;95490.59;5109891;28;20161;-73
2022/09/12 07:56:33;;;;;;;;;;;;;;;20.25;52.50;95487.22;5092002;28;20013;-74
2022/09/12 07:58:59;;;;;;;;;;;;;;;20.31;52.74;95483.09;5109849;28;20010;-74
2022/09/12 08:01:24;;;;;;;;;;;;;;;20.32;51.80;95478.47;5110109;28;20479;-75
2022/09/12 08:03:53;;;;;;;;;;;;;;;20.23;52.17;95479.50;5109016;28;20071;-74
2022/09/12 08:06:20;;;;;;;;;;;;;;;20.31;52.41;95482.31;5110145;28;20115;-74
2022/09/12 08:08:45;;;;;;;;;;;;;;;20.24;52.16;95488.38;5109973;28;20008;-73
2022/09/12 08:11:12;;;;;;;;;;;;;;;20.59;51.59;95487.50;5107035;28;20012;-74
2022/09/12 08:13:38;;;;;;;;;;;;;;;20.71;51.71;95503.53;5130908;28;20030;-73
2022/09/12 08:16:05;;;;;;;;;;;;;;;20.75;50.93;95494.34;5112133;27;20057;-74
2022/09/12 08:18:34;;;;;;;;;;;;;;;20.88;50.46;95494.16;5097195;28;20484;-73
2022/09/12 08:21:03;;;;;;;;;;;;;;;20.95;50.32;95491.59;5120100;27;20013;-73
2022/09/12 08:23:29;;;;;;;;;;;;;;;21.16;50.13;95491.91;5114320;28;20602;-73
2022/09/12 08:25:55;;;;;;;;;;;;;;;20.95;49.93;95491.59;5114800;27;20027;-75
2022/09/12 08:28:20;;;;;;;;;;;;;;;21.01;49.60;95493.63;5095445;28;20076;-75
2022/09/12 08:30:45;;;;;;;;;;;;;;;21.29;49.21;95490.59;5128740;27;20488;-74
2022/09/12 08:33:10;;;;;;;;;;;;;;;21.29;48.05;95490.59;5113925;28;20016;-75
2022/09/12 08:35:35;;;;;;;;;;;;;;;21.42;47.99;95488.47;5095773;28;20349;-75
2022/09/12 08:38:01;;;;;;;;;;;;;;;21.50;47.57;95494.78;5094499;27;20094;-74
2022/09/12 08:40:26;;;;;;;;;;;;;;;21.50;47.52;95486.66;5094824;28;20016;-74
2022/09/12 08:43:12;;;;;;;;;;;;;;;21.59;47.30;95495.28;5114017;28;20460;-74
2022/09/12 08:45:45;;;;;;;;;;;;;;;21.72;46.77;95491.22;5113711;28;20012;-75
2022/09/12 08:48:11;;;;;;;;;;;;;;;21.62;47.58;95486.44;5094597;27;20020;-74
2022/09/12 08:50:36;;;;;;;;;;;;;;;21.77;48.00;95493.59;5110907;28;20462;-74
2022/09/12 08:53:03;;;;;;;;;;;;;;;20.98;47.61;95490.84;5113646;28;20004;-74
2022/09/12 08:55:33;;;;;;;;;;;;;;;21.13;48.15;95491.84;5095818;27;20004;-74
2022/09/12 08:58:00;;;;;;;;;;;;;;;21.41;47.38;95483.44;5094890;28;20013;-74
2022/09/12 09:00:31;;;;;;;;;;;;;;;21.45;47.36;95482.34;5111910;27;20012;-73
2022/09/12 09:03:15;;;;;;;;;;;;;;;21.72;46.13;95490.44;5113245;28;20001;-72
2022/09/12 09:05:50;;;;;;;;;;;;;;;21.90;45.66;95475.16;5094992;28;20540;-75
2022/09/12 09:08:34;;;;;;;;;;;;;;;21.77;46.22;95476.56;5094700;28;20012;-74
2022/09/12 09:10:59;;;;;;;;;;;;;;;21.64;44.15;95478.72;5095172;28;20020;-74
2022/09/12 09:16:33;;;;;;;;;;;;;;;21.66;44.71;95471.03;5113230;28;20020;-74
2022/09/12 09:19:01;;;;;;;;;;;;;;;21.92;44.98;95469.41;5094339;28;20074;-74
2022/09/12 09:21:34;;;;;;;;;;;;;;;22.02;45.13;95464.13;5093930;28;20097;-73
2022/09/12 09:24:02;;;;;;;;;;;;;;;22.29;44.84;95467.53;5094490;28;20057;-74
2022/09/12 09:26:32;;;;;;;;;;;;;;;22.40;44.63;95458.75;5111911;27;20115;-74
2022/09/12 09:29:01;;;;;;;;;;;;;;;22.47;44.29;95456.91;5111258;28;20039;-74
2022/09/12 09:31:31;;;;;;;;;;;;;;;22.42;43.71;95448.28;5111799;28;20042;-73
2022/09/12 09:33:56;;;;;;;;;;;;;;;22.24;43.20;95450.84;5112806;28;20099;-73
2022/09/12 09:36:21;;;;;;;;;;;;;;;22.08;43.72;95458.38;5094347;28;20087;-74
2022/09/12 09:38:49;;;;;;;;;;;;;;;22.00;43.74;95457.50;5112228;28;20399;-74
2022/09/12 09:41:17;;;;;;;;;;;;;;;22.34;42.48;95461.00;5112180;27;20016;-74
2022/09/12 09:43:43;;;;;;;;;;;;;;;22.43;42.39;95453.38;5112344;27;20017;-74
2022/09/12 09:46:09;;;;;;;;;;;;;;;22.61;43.33;95453.53;5112345;28;20015;-73
2022/09/12 09:48:36;;;;;;;;;;;;;;;22.26;43.61;95456.66;5112075;28;20644;-74
2022/09/12 09:51:02;;;;;;;;;;;;;;;22.47;42.38;95447.97;5111520;28;20052;-74
2022/09/12 09:53:33;;;;;;;;;;;;;;;22.34;41.66;95454.81;5075715;28;20013;-74
2022/09/12 09:56:02;;;;;;;;;;;;;;;22.28;41.73;95452.44;5086872;28;20157;-75
2022/09/12 09:58:28;;;;;;;;;;;;;;;22.28;41.98;95448.94;5111719;28;20159;-74
2022/09/12 10:00:57;;;;;;;;;;;;;;;22.53;41.62;95455.41;5112008;28;20017;-75
2022/09/12 10:03:25;;;;;;;;;;;;;;;22.11;42.19;95450.31;5112232;28;20006;-74
2022/09/12 10:05:50;;;;;;;;;;;;;;;22.40;41.28;95454.09;5093281;28;20008;-75
2022/09/12 10:08:23;;;;;;;;;;;;;;;22.43;41.32;95449.88;5111700;28;20501;-74
2022/09/12 10:10:56;;;;;;;;;;;;;;;22.07;41.69;95446.75;5110851;27;20020;-74
2022/09/12 10:13:36;;;;;;;;;;;;;;;22.73;41.00;95447.84;5111698;27;20013;-74
2022/09/12 10:16:04;;;;;;;;;;;;;;;22.51;40.98;95454.19;5111377;27;20008;-74
2022/09/12 10:18:38;;;;;;;;;;;;;;;22.12;41.43;95446.47;5111515;28;20468;-74
2022/09/12 10:21:14;;;;;;;;;;;;;;;22.67;39.98;95445.81;5111853;28;20498;-75
2022/09/12 10:23:40;;;;;;;;;;;;;;;22.92;39.57;95446.84;5094212;27;20084;-74
2022/09/12 10:26:11;;;;;;;;;;;;;;;23.00;39.86;95440.31;5110785;27;20012;-74
2022/09/12 10:28:38;;;;;;;;;;;;;;;23.40;38.98;95437.88;5111380;28;20013;-74
2022/09/12 10:31:04;;;;;;;;;;;;;;;23.25;39.28;95443.22;5093550;28;20009;-73
2022/09/12 10:33:30;;;;;;;;;;;;;;;23.38;39.11;95443.66;5111719;28;20004;-74
2022/09/12 10:35:56;;;;;;;;;;;;;;;23.48;39.46;95429.38;5123003;27;20016;-74
2022/09/12 10:38:26;;;;;;;;;;;;;;;21.68;41.37;95441.63;5131501;27;20016;-74
2022/09/12 10:41:00;;;;;;;;;;;;;;;22.81;40.31;95435.09;5109054;27;20016;-75
2022/09/12 10:43:29;;;;;;;;;;;;;;;22.98;39.67;95428.28;5111501;28;20048;-74
2022/09/12 10:45:58;;;;;;;;;;;;;;;22.95;38.27;95435.25;5110944;28;20017;-76
2022/09/12 10:48:28;;;;;;;;;;;;;;;23.33;38.69;95427.75;5110950;28;20473;-75
2022/09/12 10:50:55;;;;;;;;;;;;;;;23.24;39.71;95427.31;5110458;28;20480;-75
2022/09/12 10:53:39;;;;;;;;;;;;;;;23.41;39.75;95429.34;5111175;28;20004;-74
2022/09/12 10:56:19;;;;;;;;;;;;;;;23.75;39.50;95431.84;5111471;27;20008;-73
2022/09/12 10:59:02;;;;;;;;;;;;;;;23.93;39.00;95421.09;5110794;28;20099;-75
2022/09/12 11:01:40;;;;;;;;;;;;;;;24.21;38.59;95420.38;5092378;28;20009;-75
2022/09/12 11:04:14;;;;;;;;;;;;;;;24.02;39.96;95425.00;5110878;28;20008;-74
2022/09/12 11:06:42;;;;;;;;;;;;;;;23.81;38.50;95424.94;5110737;28;20128;-75
2022/09/12 11:09:17;;;;;;;;;;;;;;;23.88;37.78;95416.78;5115360;27;20396;-74
2022/09/12 11:12:00;;;;;;;;;;;;;;;24.05;38.34;95421.50;5106130;28;20098;-75
2022/09/12 11:14:43;;;;;;;;;;;;;;;24.15;38.12;95417.25;5110966;28;20004;-76
2022/09/12 11:17:09;;;;;;;;;;;;;;;24.27;38.00;95411.47;5092538;28;20009;-74
2022/09/12 11:19:46;;;;;;;;;;;;;;;24.27;39.69;95416.13;5110744;28;20012;-74
2022/09/12 11:22:28;;;;;;;;;;;;;;;24.27;37.55;95416.91;5110756;28;20047;-74
2022/09/12 11:24:56;;;;;;;;;;;;;;;23.36;38.14;95418.84;5110937;28;20015;-73
2022/09/12 11:27:21;;;;;;;;;;;;;;;23.80;36.70;95418.72;5116632;27;20019;-74
2022/09/12 11:30:02;;;;;;;;;;;;;;;24.23;37.65;95410.69;5091456;28;20013;-75
2022/09/12 11:32:34;;;;;;;;;;;;;;;24.43;37.07;95407.66;5110543;28;20005;-73
2022/09/12 11:35:02;;;;;;;;;;;;;;;23.36;39.66;95410.72;5110474;28;20005;-74
2022/09/12 11:37:49;;;;;;;;;;;;;;;23.22;40.16;95407.91;5109425;28;20013;-74
2022/09/12 11:40:19;;;;;;;;;;;;;;;23.53;39.41;95410.00;5091514;28;20053;-74
2022/09/12 11:42:46;;;;;;;;;;;;;;;23.78;39.58;95407.44;5110637;28;20020;-74
2022/09/12 11:45:14;;;;;;;;;;;;;;;24.25;37.39;95411.06;5109826;28;20024;-74
2022/09/12 11:47:42;;;;;;;;;;;;;;;24.05;37.66;95402.47;5110402;28;20023;-74
2022/09/12 11:50:17;;;;;;;;;;;;;;;24.25;37.96;95402.13;5109725;28;20004;-75
2022/09/12 11:52:43;;;;;;;;;;;;;;;24.41;37.23;95408.00;5109527;28;20065;-74
2022/09/12 11:55:20;;;;;;;;;;;;;;;24.62;36.84;95396.41;5110176;28;20009;-74
2022/09/12 11:57:52;;;;;;;;;;;;;;;24.83;36.17;95392.91;5091986;28;20518;-75
2022/09/12 12:00:23;;;;;;;;;;;;;;;24.43;36.33;95388.63;5088936;28;20061;-77
2022/09/12 12:02:51;;;;;;;;;;;;;;;24.91;35.75;95394.44;5089940;28;20012;-74
2022/09/12 12:05:20;;;;;;;;;;;;;;;25.10;35.63;95391.34;5090045;28;20064;-75
2022/09/12 12:07:51;;;;;;;;;;;;;;;25.37;35.31;95396.34;5071495;28;20497;-75
2022/09/12 12:10:25;;;;;;;;;;;;;;;25.48;35.93;95394.34;5109476;28;20488;-76
2022/09/12 12:12:51;;;;;;;;;;;;;;;25.31;35.28;95387.03;5110307;28;20018;-75
2022/09/12 12:15:17;;;;;;;;;;;;;;;25.79;35.02;95390.00;5110135;28;20063;-75
2022/09/12 12:17:42;;;;;;;;;;;;;;;25.57;35.38;95393.94;5110264;28;20005;-74
2022/09/12 12:20:14;;;;;;;;;;;;;;;25.42;36.65;95394.00;5108696;28;20013;-74
2022/09/12 12:22:49;;;;;;;;;;;;;;;25.93;35.54;95387.22;5109843;28;20083;-74
2022/09/12 12:25:15;;;;;;;;;;;;;;;26.24;34.77;95386.66;5110043;28;20051;-76
2022/09/12 12:27:43;;;;;;;;;;;;;;;26.42;34.24;95384.63;5109214;28;20432;-74
2022/09/12 12:30:27;;;;;;;;;;;;;;;26.60;34.82;95382.53;5090965;28;20090;-74
2022/09/12 12:32:57;;;;;;;;;;;;;;;26.23;34.20;95379.66;5091215;28;20008;-74
2022/09/12 12:35:35;;;;;;;;;;;;;;;26.59;34.27;95381.00;5110107;28;20005;-75
2022/09/12 12:38:01;;;;;;;;;;;;;;;26.66;33.84;95377.41;5091398;28;20008;-75
2022/09/12 12:40:28;;;;;;;;;;;;;;;26.75;32.99;95377.75;5090602;28;20060;-75
2022/09/12 12:42:57;;;;;;;;;;;;;;;26.17;33.59;95368.41;5091862;28;20004;-75
2022/09/12 12:45:25;;;;;;;;;;;;;;;25.59;34.89;95376.06;5109690;28;20009;-75
2022/09/12 12:48:00;;;;;;;;;;;;;;;24.94;35.43;95376.56;5091865;28;20061;-75
2022/09/12 12:50:26;;;;;;;;;;;;;;;25.76;35.01;95366.28;5109657;28;20011;-74
2022/09/12 12:53:02;;;;;;;;;;;;;;;26.27;33.85;95364.81;5109690;28;20521;-75
2022/09/12 12:55:30;;;;;;;;;;;;;;;26.78;33.92;95373.44;5109852;28;20004;-75
2022/09/12 12:57:56;;;;;;;;;;;;;;;26.80;32.78;95365.63;5109671;28;20055;-75